Time;durP1;ratioP1;P1;durP2;ratioP2;P2;SDS_P1;SDS_P2;PMS_P1;PMS_P2;Temp;Humidity;BMP_temperature;BMP_pressure;BME280_temperature;BME280_humidity;BME280_pressure;Samples;Min_cycle;Max_cycle;Signal;HPM_P1;HPM_P2
2023/09/21 00:01:15;;;;;;;6.75;3.30;;;17.10;99.90;;;;;;5062828;28;20029;-74
2023/09/21 00:03:41;;;;;;;5.47;2.67;;;17.10;99.90;;;;;;5064597;28;20510;-74
2023/09/21 00:06:09;;;;;;;6.63;3.05;;;17.10;99.90;;;;;;5064038;28;20040;-75
2023/09/21 00:08:35;;;;;;;4.70;2.88;;;17.10;99.90;;;;;;5064527;28;20036;-74
2023/09/21 00:11:03;;;;;;;4.03;2.63;;;17.00;99.90;;;;;;5064106;28;20029;-74
2023/09/21 00:13:28;;;;;;;3.53;2.60;;;17.00;99.90;;;;;;5064293;28;20034;-75
2023/09/21 00:15:55;;;;;;;7.03;2.90;;;17.00;99.90;;;;;;5062567;28;20028;-75
2023/09/21 00:18:24;;;;;;;6.57;2.80;;;17.00;99.90;;;;;;5063904;28;20516;-74
2023/09/21 00:20:53;;;;;;;5.28;2.80;;;17.00;99.90;;;;;;5064092;28;20029;-75
2023/09/21 00:23:23;;;;;;;3.92;2.65;;;17.00;99.90;;;;;;5064113;28;20036;-74
2023/09/21 00:25:50;;;;;;;4.55;2.83;;;16.90;99.90;;;;;;5062327;28;20021;-75
2023/09/21 00:28:19;;;;;;;5.82;2.90;;;16.90;99.90;;;;;;5062979;28;20075;-76
2023/09/21 00:30:46;;;;;;;5.53;2.78;;;16.90;99.90;;;;;;5063429;28;20029;-75
2023/09/21 00:33:11;;;;;;;4.72;2.70;;;16.90;99.90;;;;;;5063958;28;20385;-75
2023/09/21 00:35:39;;;;;;;4.55;2.38;;;16.90;99.90;;;;;;5062265;28;20041;-74
2023/09/21 00:38:14;;;;;;;5.75;2.83;;;16.90;99.90;;;;;;5063216;28;20076;-75
2023/09/21 00:40:40;;;;;;;5.80;2.75;;;16.90;99.90;;;;;;5062062;28;20031;-75
2023/09/21 00:43:08;;;;;;;6.38;2.63;;;16.90;99.90;;;;;;5062025;28;20021;-75
2023/09/21 00:45:38;;;;;;;4.28;2.47;;;16.90;99.90;;;;;;5061862;28;20055;-74
2023/09/21 00:48:20;;;;;;;6.10;3.40;;;16.90;99.90;;;;;;5063631;28;20021;-71
2023/09/21 00:50:58;;;;;;;5.88;2.63;;;16.80;99.90;;;;;;5063581;28;20478;-76
2023/09/21 00:53:28;;;;;;;5.72;3.08;;;16.80;99.90;;;;;;5062838;28;20813;-76
2023/09/21 00:56:02;;;;;;;7.45;3.03;;;16.80;99.90;;;;;;5061926;28;20024;-74
2023/09/21 00:58:30;;;;;;;5.50;3.40;;;16.80;99.90;;;;;;5062032;28;20413;-75
2023/09/21 01:00:56;;;;;;;6.03;3.35;;;16.80;99.90;;;;;;5061627;28;20481;-75
2023/09/21 01:03:27;;;;;;;6.40;3.90;;;16.80;99.90;;;;;;5063688;28;20040;-77
2023/09/21 01:05:53;;;;;;;5.65;3.67;;;16.80;99.90;;;;;;5063050;28;20029;-74
2023/09/21 01:08:28;;;;;;;5.78;3.30;;;16.70;99.90;;;;;;5062532;28;20044;-77
2023/09/21 01:10:56;;;;;;;6.57;3.10;;;16.70;99.90;;;;;;5062023;28;20067;-75
2023/09/21 01:13:25;;;;;;;6.70;3.35;;;16.70;99.90;;;;;;5062293;28;20029;-76
2023/09/21 01:16:05;;;;;;;5.43;3.00;;;16.70;99.90;;;;;;5062886;28;20017;-75
2023/09/21 01:18:31;;;;;;;6.10;2.92;;;16.60;99.90;;;;;;5062403;28;20048;-74
2023/09/21 01:21:00;;;;;;;6.63;3.40;;;16.60;99.90;;;;;;5062784;28;20025;-75
2023/09/21 01:23:36;;;;;;;7.53;3.30;;;16.60;99.90;;;;;;5061622;28;20486;-75
2023/09/21 01:26:02;;;;;;;4.25;2.72;;;16.60;99.90;;;;;;5061008;28;20028;-74
2023/09/21 01:28:29;;;;;;;7.03;3.13;;;16.50;99.90;;;;;;5062691;28;20017;-73
2023/09/21 01:30:57;;;;;;;9.90;3.50;;;16.50;99.90;;;;;;5062166;28;20071;-75
2023/09/21 01:33:24;;;;;;;6.03;3.30;;;16.50;99.90;;;;;;5061101;28;20021;-74
2023/09/21 01:35:49;;;;;;;9.70;4.00;;;16.50;99.90;;;;;;5062711;28;20140;-78
2023/09/21 01:38:17;;;;;;;8.93;3.83;;;16.40;99.90;;;;;;5060994;28;20017;-75
2023/09/21 01:40:43;;;;;;;10.68;3.58;;;16.40;99.90;;;;;;5062453;28;20025;-73
2023/09/21 01:43:11;;;;;;;6.00;3.22;;;16.40;99.90;;;;;;5061149;28;20031;-74
2023/09/21 01:45:39;;;;;;;5.07;3.13;;;16.40;99.90;;;;;;5062484;28;20028;-76
2023/09/21 01:48:10;;;;;;;5.22;3.22;;;16.40;99.90;;;;;;5061874;28;20067;-74
2023/09/21 01:50:40;;;;;;;10.13;3.47;;;16.40;99.90;;;;;;5061922;28;20088;-74
2023/09/21 01:53:09;;;;;;;7.13;3.33;;;16.30;99.90;;;;;;5062042;28;20036;-75
2023/09/21 01:55:35;;;;;;;5.28;3.25;;;16.30;99.90;;;;;;5060398;28;20029;-75
2023/09/21 01:58:02;;;;;;;6.03;3.35;;;16.30;99.90;;;;;;5061529;28;20021;-76
2023/09/21 02:00:29;;;;;;;5.30;3.15;;;16.30;99.90;;;;;;5062407;28;20021;-77
2023/09/21 02:02:55;;;;;;;4.85;2.95;;;16.30;99.90;;;;;;5061291;28;20048;-77
2023/09/21 02:05:23;;;;;;;7.82;3.42;;;16.30;99.90;;;;;;5062584;28;20033;-74
2023/09/21 02:07:55;;;;;;;9.15;3.95;;;16.30;99.90;;;;;;5061912;28;20021;-76
2023/09/21 02:10:22;;;;;;;4.80;3.33;;;16.30;99.90;;;;;;5061681;28;20021;-75
2023/09/21 02:13:03;;;;;;;5.90;3.13;;;16.30;99.90;;;;;;5062035;28;20037;-77
2023/09/21 02:15:30;;;;;;;7.03;3.20;;;16.30;99.90;;;;;;5061856;28;20075;-75
2023/09/21 02:17:56;;;;;;;5.88;3.10;;;16.30;99.90;;;;;;5060514;28;20021;-76
2023/09/21 02:20:26;;;;;;;8.25;3.17;;;16.30;99.90;;;;;;5062144;28;20332;-76
2023/09/21 02:22:57;;;;;;;6.60;3.40;;;16.30;99.90;;;;;;5061488;28;20051;-76
2023/09/21 02:25:24;;;;;;;6.90;3.33;;;16.30;99.90;;;;;;5061905;28;20052;-74
2023/09/21 02:27:50;;;;;;;8.07;3.30;;;16.30;99.90;;;;;;5060489;28;20024;-76
2023/09/21 02:30:17;;;;;;;11.30;4.03;;;16.30;99.90;;;;;;5060394;28;20024;-76
2023/09/21 02:32:48;;;;;;;8.38;3.35;;;16.30;99.90;;;;;;5061955;28;20024;-77
2023/09/21 02:35:16;;;;;;;6.60;3.22;;;16.30;99.90;;;;;;5061247;28;20041;-75
2023/09/21 02:37:46;;;;;;;6.95;3.40;;;16.30;99.90;;;;;;5061480;28;20459;-74
2023/09/21 02:40:17;;;;;;;4.35;3.15;;;16.30;99.90;;;;;;5061850;28;20075;-75
2023/09/21 02:42:51;;;;;;;6.10;3.72;;;16.30;99.90;;;;;;5061323;28;20107;-79
2023/09/21 02:45:18;;;;;;;8.38;3.28;;;16.30;99.90;;;;;;5061005;28;20025;-75
2023/09/21 02:47:46;;;;;;;9.40;3.50;;;16.30;99.90;;;;;;5061588;28;20029;-76
2023/09/21 02:50:16;;;;;;;6.18;3.58;;;16.30;99.90;;;;;;5061403;28;20484;-75
2023/09/21 02:52:47;;;;;;;7.03;3.33;;;16.30;99.90;;;;;;5059264;28;20033;-76
2023/09/21 02:55:17;;;;;;;6.60;3.67;;;16.30;99.90;;;;;;5061274;28;20024;-75
2023/09/21 02:57:47;;;;;;;8.68;3.60;;;16.30;99.90;;;;;;5061376;28;20025;-76
2023/09/21 03:00:25;;;;;;;5.88;3.10;;;16.30;99.90;;;;;;5060710;28;20024;-74
2023/09/21 03:02:52;;;;;;;7.28;3.70;;;16.30;99.90;;;;;;5060047;28;20143;-75
2023/09/21 03:05:18;;;;;;;7.85;3.35;;;16.30;99.90;;;;;;5060963;28;20048;-75
2023/09/21 03:07:45;;;;;;;10.63;3.70;;;16.30;99.90;;;;;;5061295;28;20465;-74
2023/09/21 03:10:12;;;;;;;6.32;3.58;;;16.30;99.90;;;;;;5061266;28;20025;-74
2023/09/21 03:12:38;;;;;;;6.45;3.65;;;16.30;99.90;;;;;;5061174;28;20036;-76
2023/09/21 03:15:13;;;;;;;9.60;3.72;;;16.30;99.90;;;;;;5060535;28;20017;-76
2023/09/21 03:17:40;;;;;;;5.15;3.40;;;16.30;99.90;;;;;;5061180;28;20017;-76
2023/09/21 03:20:09;;;;;;;10.25;3.45;;;16.30;99.90;;;;;;5059730;28;20031;-74
2023/09/21 03:22:37;;;;;;;6.00;3.30;;;16.30;99.90;;;;;;5060839;28;20513;-75
2023/09/21 03:25:03;;;;;;;8.85;3.67;;;16.30;99.90;;;;;;5060668;28;20473;-76
2023/09/21 03:27:29;;;;;;;6.70;4.18;;;16.20;99.90;;;;;;5059274;28;20500;-75
2023/09/21 03:29:55;;;;;;;5.80;3.30;;;16.20;99.90;;;;;;5061000;28;20053;-76
2023/09/21 03:32:21;;;;;;;5.43;3.40;;;16.20;99.90;;;;;;5061035;28;20036;-74
2023/09/21 03:34:47;;;;;;;6.15;3.70;;;16.20;99.90;;;;;;5060752;28;20033;-75
2023/09/21 03:37:13;;;;;;;6.32;3.60;;;16.20;99.90;;;;;;5061234;28;20052;-75
2023/09/21 03:39:39;;;;;;;7.50;3.60;;;16.20;99.90;;;;;;5059647;28;20013;-76
2023/09/21 03:42:05;;;;;;;7.00;3.60;;;16.20;99.90;;;;;;5060397;28;20041;-76
2023/09/21 03:44:31;;;;;;;5.57;3.15;;;16.20;99.90;;;;;;5059922;28;20047;-74
2023/09/21 03:46:57;;;;;;;7.78;3.63;;;16.20;99.90;;;;;;5060288;28;20029;-74
2023/09/21 03:49:23;;;;;;;7.53;3.55;;;16.20;99.90;;;;;;5059485;28;20025;-76
2023/09/21 03:51:48;;;;;;;6.07;3.60;;;16.20;99.90;;;;;;5059845;28;20358;-75
2023/09/21 03:54:16;;;;;;;7.53;3.55;;;16.20;99.90;;;;;;5060723;28;20087;-76
2023/09/21 03:56:42;;;;;;;3.88;3.00;;;16.20;99.90;;;;;;5060453;28;20025;-76
2023/09/21 03:59:10;;;;;;;7.40;4.13;;;16.20;99.90;;;;;;5059340;28;20474;-76
2023/09/21 04:01:40;;;;;;;8.52;3.22;;;16.20;99.90;;;;;;5060191;28;20059;-75
2023/09/21 04:04:17;;;;;;;5.47;3.05;;;16.20;99.90;;;;;;5063801;28;20021;-74
2023/09/21 04:06:43;;;;;;;7.00;3.40;;;16.30;99.90;;;;;;5063297;28;20156;-75
2023/09/21 04:09:09;;;;;;;6.80;3.50;;;16.30;99.90;;;;;;5062413;28;20056;-75
2023/09/21 04:11:34;;;;;;;7.50;3.50;;;16.20;99.90;;;;;;5064492;28;20067;-75
2023/09/21 04:14:01;;;;;;;5.85;3.22;;;16.30;99.90;;;;;;5064152;28;20060;-76
2023/09/21 04:16:26;;;;;;;7.03;3.95;;;16.30;99.90;;;;;;5062926;28;20025;-75
2023/09/21 04:18:52;;;;;;;7.30;3.63;;;16.30;99.90;;;;;;5064149;28;20060;-75
2023/09/21 04:21:18;;;;;;;8.98;3.75;;;16.30;99.90;;;;;;5063004;28;20181;-75
2023/09/21 04:23:44;;;;;;;7.07;3.30;;;16.30;99.90;;;;;;5062819;28;20024;-75
2023/09/21 04:26:10;;;;;;;7.72;3.60;;;16.30;99.90;;;;;;5064069;28;20037;-76
2023/09/21 04:28:36;;;;;;;7.18;3.40;;;16.30;99.90;;;;;;5063002;28;20021;-75
2023/09/21 04:31:01;;;;;;;8.88;3.20;;;16.40;99.90;;;;;;5063549;28;20088;-75
2023/09/21 04:33:27;;;;;;;4.82;3.10;;;16.40;99.90;;;;;;5062689;28;20021;-75
2023/09/21 04:35:53;;;;;;;5.70;3.13;;;16.40;99.90;;;;;;5062220;28;20076;-75
2023/09/21 04:38:18;;;;;;;7.85;2.90;;;16.40;99.90;;;;;;5063439;28;20032;-74
2023/09/21 04:40:46;;;;;;;6.13;3.30;;;16.40;99.90;;;;;;5062552;28;20470;-77
2023/09/21 04:43:13;;;;;;;10.00;3.47;;;16.50;99.90;;;;;;5063247;28;20025;-76
2023/09/21 04:45:38;;;;;;;6.30;2.92;;;16.40;99.90;;;;;;5062504;28;20021;-74
2023/09/21 04:48:04;;;;;;;5.57;3.17;;;16.40;99.90;;;;;;5063638;28;20472;-74
2023/09/21 04:50:30;;;;;;;6.82;2.95;;;16.40;99.90;;;;;;5061343;28;20492;-74
2023/09/21 04:52:55;;;;;;;5.82;3.20;;;16.40;99.90;;;;;;5063658;28;20029;-75
2023/09/21 04:55:21;;;;;;;5.10;2.83;;;16.40;99.90;;;;;;5062159;28;20029;-74
2023/09/21 04:57:47;;;;;;;5.32;2.72;;;16.40;99.90;;;;;;5063341;28;20075;-75
2023/09/21 05:00:14;;;;;;;8.38;2.90;;;16.40;99.90;;;;;;5063327;28;20070;-74
2023/09/21 05:02:41;;;;;;;8.68;3.10;;;16.40;99.90;;;;;;5063313;28;20037;-76
2023/09/21 05:05:07;;;;;;;4.60;2.65;;;16.40;99.90;;;;;;5062957;28;20025;-74
2023/09/21 05:07:35;;;;;;;9.82;3.13;;;16.40;99.90;;;;;;5063069;28;20036;-74
2023/09/21 05:10:01;;;;;;;6.63;2.63;;;16.40;99.90;;;;;;5061856;28;20029;-74
2023/09/21 05:12:27;;;;;;;6.70;3.65;;;16.40;99.90;;;;;;5061103;28;20044;-76
2023/09/21 05:14:53;;;;;;;6.90;2.97;;;16.40;99.90;;;;;;5059527;28;20029;-76
2023/09/21 05:17:21;;;;;;;6.95;3.00;;;16.40;99.90;;;;;;5062170;28;20036;-72
2023/09/21 05:19:46;;;;;;;5.65;2.97;;;16.40;99.90;;;;;;5063042;28;20025;-71
2023/09/21 05:22:12;;;;;;;8.82;2.88;;;16.40;99.90;;;;;;5062789;28;20055;-74
2023/09/21 05:24:39;;;;;;;9.55;2.92;;;16.40;99.90;;;;;;5063171;28;20445;-72
2023/09/21 05:27:06;;;;;;;5.63;3.20;;;16.40;99.90;;;;;;5062616;28;20027;-71
2023/09/21 05:29:37;;;;;;;6.18;2.80;;;16.40;99.90;;;;;;5062890;28;20043;-73
2023/09/21 05:32:05;;;;;;;6.30;3.35;;;16.40;99.90;;;;;;5062835;28;20025;-73
2023/09/21 05:34:32;;;;;;;6.60;3.25;;;16.40;99.90;;;;;;5062549;28;20013;-72
2023/09/21 05:36:57;;;;;;;7.28;3.17;;;16.40;99.90;;;;;;5062403;28;20072;-72
2023/09/21 05:39:23;;;;;;;9.98;3.45;;;16.40;99.90;;;;;;5061209;28;20780;-72
2023/09/21 05:41:52;;;;;;;6.50;3.13;;;16.50;99.90;;;;;;5062649;28;20044;-73
2023/09/21 05:44:24;;;;;;;6.50;3.20;;;16.40;99.90;;;;;;5063047;28;20040;-73
2023/09/21 05:46:50;;;;;;;7.32;3.22;;;16.50;99.90;;;;;;5062245;28;20478;-73
2023/09/21 05:49:22;;;;;;;5.65;3.30;;;16.50;99.90;;;;;;5062561;28;20037;-73
2023/09/21 05:51:52;;;;;;;5.00;2.90;;;16.50;99.90;;;;;;5061581;28;20028;-74
2023/09/21 05:54:23;;;;;;;6.57;2.90;;;16.50;99.90;;;;;;5060977;28;20035;-72
2023/09/21 05:56:52;;;;;;;6.53;3.05;;;16.50;99.90;;;;;;5061303;28;20021;-73
2023/09/21 05:59:19;;;;;;;6.22;3.20;;;16.50;99.90;;;;;;5062442;28;20032;-73
2023/09/21 06:01:45;;;;;;;6.45;3.20;;;16.60;99.90;;;;;;5062118;28;20041;-72
2023/09/21 06:04:16;;;;;;;5.78;3.10;;;16.60;99.90;;;;;;5062002;28;20055;-73
2023/09/21 06:06:46;;;;;;;4.63;3.05;;;16.60;99.90;;;;;;5062516;28;20021;-72
2023/09/21 06:09:18;;;;;;;4.32;2.60;;;16.60;99.90;;;;;;5061562;28;20029;-72
2023/09/21 06:11:44;;;;;;;3.92;2.65;;;16.60;99.90;;;;;;5061338;28;20021;-74
2023/09/21 06:14:10;;;;;;;7.47;3.08;;;16.70;99.90;;;;;;5061791;28;20057;-73
2023/09/21 06:16:35;;;;;;;6.97;2.92;;;16.70;99.90;;;;;;5060311;28;20044;-72
2023/09/21 06:19:01;;;;;;;5.28;3.03;;;16.70;99.90;;;;;;5060739;28;20123;-73
2023/09/21 06:21:28;;;;;;;6.15;2.90;;;16.70;99.90;;;;;;5060165;28;20481;-73
2023/09/21 06:23:54;;;;;;;6.88;2.60;;;16.80;99.90;;;;;;5061618;28;20017;-73
2023/09/21 06:26:22;;;;;;;5.85;2.75;;;16.80;99.90;;;;;;5060058;28;20056;-73
2023/09/21 06:28:48;;;;;;;5.88;2.67;;;16.90;99.90;;;;;;5061592;28;20029;-73
2023/09/21 06:31:15;;;;;;;8.00;3.13;;;16.90;99.90;;;;;;5060159;28;20049;-73
2023/09/21 06:33:41;;;;;;;6.57;2.65;;;17.00;99.90;;;;;;5062048;28;20025;-73
2023/09/21 06:36:18;;;;;;;5.90;2.85;;;17.00;99.90;;;;;;5061600;28;20048;-73
2023/09/21 06:38:45;;;;;;;6.45;3.10;;;17.10;99.90;;;;;;5060537;28;20017;-73
2023/09/21 06:41:11;;;;;;;5.55;2.90;;;17.10;99.90;;;;;;5061892;28;20044;-72
2023/09/21 06:43:42;;;;;;;8.82;3.13;;;17.20;99.90;;;;;;5061356;28;20469;-73
2023/09/21 06:46:08;;;;;;;6.10;3.05;;;17.30;99.90;;;;;;5061378;28;20030;-73
2023/09/21 06:48:34;;;;;;;5.32;2.83;;;17.30;99.90;;;;;;5059856;28;20053;-72
2023/09/21 06:51:00;;;;;;;5.75;2.97;;;17.40;99.90;;;;;;5059880;28;20123;-71
2023/09/21 06:53:28;;;;;;;5.38;2.63;;;17.50;99.90;;;;;;5061720;28;20029;-72
2023/09/21 06:55:55;;;;;;;7.22;3.95;;;17.50;99.90;;;;;;5061317;28;20025;-72
2023/09/21 06:58:21;;;;;;;6.20;3.10;;;17.70;99.90;;;;;;5061542;28;20084;-72
2023/09/21 07:00:47;;;;;;;7.18;2.85;;;17.80;99.90;;;;;;5061824;28;20045;-72
2023/09/21 07:03:13;;;;;;;5.78;2.88;;;17.90;99.90;;;;;;5061164;28;20029;-73
2023/09/21 07:05:43;;;;;;;5.60;3.10;;;18.00;99.90;;;;;;5059830;28;20074;-72
2023/09/21 07:08:13;;;;;;;9.43;2.75;;;18.10;99.90;;;;;;5060442;28;20094;-72
2023/09/21 07:10:38;;;;;;;6.35;2.50;;;18.10;99.90;;;;;;5060020;28;20025;-72
2023/09/21 07:13:05;;;;;;;5.07;2.80;;;18.20;99.90;;;;;;5059702;28;20021;-71
2023/09/21 07:15:31;;;;;;;5.80;2.83;;;18.20;99.90;;;;;;5060191;28;20703;-71
2023/09/21 07:17:56;;;;;;;6.40;3.10;;;18.30;99.90;;;;;;5060916;28;20028;-71
2023/09/21 07:20:23;;;;;;;5.20;2.53;;;18.30;99.90;;;;;;5061510;28;20029;-73
2023/09/21 07:22:53;;;;;;;5.00;2.90;;;18.30;99.90;;;;;;5061456;28;20045;-72
2023/09/21 07:25:19;;;;;;;4.75;2.85;;;18.40;99.90;;;;;;5061092;28;20127;-71
2023/09/21 07:27:46;;;;;;;6.43;2.40;;;18.40;99.90;;;;;;5061382;28;20024;-72
2023/09/21 07:30:13;;;;;;;5.68;2.60;;;18.50;99.90;;;;;;5060291;28;20033;-71
2023/09/21 07:32:39;;;;;;;4.60;2.78;;;18.50;99.90;;;;;;5061099;28;20071;-72
2023/09/21 07:35:06;;;;;;;5.78;2.70;;;18.60;99.90;;;;;;5059263;28;20045;-71
2023/09/21 07:37:32;;;;;;;4.15;2.75;;;18.60;99.90;;;;;;5060469;28;20032;-72
2023/09/21 07:39:58;;;;;;;6.20;2.60;;;18.70;99.90;;;;;;5064500;28;20055;-71
2023/09/21 07:42:24;;;;;;;4.75;2.75;;;18.70;99.90;;;;;;5065322;28;20029;-71
2023/09/21 07:44:49;;;;;;;8.25;3.08;;;18.70;99.90;;;;;;5064970;28;20105;-73
2023/09/21 07:47:16;;;;;;;6.72;2.83;;;18.80;99.90;;;;;;5061574;28;20033;-72
2023/09/21 07:49:44;;;;;;;7.35;2.85;;;18.80;99.90;;;;;;5065180;28;20013;-71
2023/09/21 07:52:10;;;;;;;5.22;2.58;;;18.80;99.90;;;;;;5063175;28;20801;-70
2023/09/21 07:54:35;;;;;;;5.55;2.50;;;18.80;99.90;;;;;;5065023;28;20032;-70
2023/09/21 07:57:03;;;;;;;6.90;2.63;;;18.90;99.90;;;;;;5064774;28;20020;-71
2023/09/21 07:59:29;;;;;;;6.30;2.80;;;18.90;99.90;;;;;;5064412;28;20025;-71
2023/09/21 08:01:56;;;;;;;5.63;2.70;;;18.90;99.90;;;;;;5064127;28;20048;-70
2023/09/21 08:04:22;;;;;;;8.45;2.40;;;19.00;99.90;;;;;;5063047;28;20017;-70
2023/09/21 08:06:49;;;;;;;6.32;2.50;;;19.00;99.90;;;;;;5064066;28;20025;-72
2023/09/21 08:09:18;;;;;;;7.57;3.20;;;19.00;99.90;;;;;;5062832;28;20025;-73
2023/09/21 08:11:46;;;;;;;6.28;3.03;;;19.00;99.90;;;;;;5061053;28;20080;-73
2023/09/21 08:14:15;;;;;;;7.82;2.90;;;19.10;99.90;;;;;;5063258;28;20036;-70
2023/09/21 08:16:44;;;;;;;6.47;2.70;;;19.10;99.90;;;;;;5063378;28;20040;-72
2023/09/21 08:19:10;;;;;;;5.97;2.30;;;19.20;99.90;;;;;;5061810;28;20029;-71
2023/09/21 08:21:37;;;;;;;7.18;2.63;;;19.30;99.90;;;;;;5061326;28;20112;-72
2023/09/21 08:24:03;;;;;;;7.47;2.85;;;19.60;99.90;;;;;;5061985;28;20126;-70
2023/09/21 08:26:28;;;;;;;6.40;2.58;;;19.80;99.90;;;;;;5061990;28;20076;-70
2023/09/21 08:28:54;;;;;;;4.45;2.97;;;19.80;99.90;;;;;;5060212;28;20033;-72
2023/09/21 08:31:20;;;;;;;6.07;2.95;;;19.90;99.90;;;;;;5061096;28;20029;-72
2023/09/21 08:33:46;;;;;;;12.65;2.95;;;20.10;99.90;;;;;;5060981;28;20029;-72
2023/09/21 08:36:15;;;;;;;8.35;2.95;;;20.30;99.90;;;;;;5060942;28;20053;-71
2023/09/21 08:38:41;;;;;;;7.30;2.65;;;20.50;99.90;;;;;;5062897;28;20021;-70
2023/09/21 08:41:08;;;;;;;7.80;3.15;;;20.60;99.90;;;;;;5061851;28;20029;-71
2023/09/21 08:43:35;;;;;;;8.30;2.65;;;20.90;99.90;;;;;;5061807;28;20032;-71
2023/09/21 08:46:00;;;;;;;4.20;2.60;;;21.10;99.90;;;;;;5061680;28;20029;-70
2023/09/21 08:48:29;;;;;;;6.28;2.60;;;21.30;99.90;;;;;;5062230;28;20043;-71
2023/09/21 08:50:55;;;;;;;7.88;2.40;;;21.50;99.90;;;;;;5060020;28;20390;-71
2023/09/21 08:53:22;;;;;;;4.57;2.67;;;21.70;99.90;;;;;;5062325;28;20021;-70
2023/09/21 08:55:50;;;;;;;4.32;2.35;;;21.80;99.90;;;;;;5062808;28;20466;-73
2023/09/21 08:58:23;;;;;;;9.30;2.65;;;21.90;99.90;;;;;;5062445;28;20024;-72
2023/09/21 09:00:52;;;;;;;6.57;2.80;;;22.00;99.90;;;;;;5059359;28;20037;-71
2023/09/21 09:03:25;;;;;;;11.40;2.85;;;22.10;99.90;;;;;;5060502;28;20037;-72
2023/09/21 09:05:54;;;;;;;3.75;2.40;;;22.20;99.90;;;;;;5062617;28;20490;-70
2023/09/21 09:08:19;;;;;;;5.53;2.42;;;22.40;99.90;;;;;;5063120;28;20505;-71
2023/09/21 09:10:45;;;;;;;4.35;2.40;;;22.40;99.90;;;;;;5061255;28;20033;-73
2023/09/21 09:13:10;;;;;;;6.78;2.42;;;22.50;99.90;;;;;;5062436;28;20029;-71
2023/09/21 09:15:38;;;;;;;8.75;2.47;;;22.60;99.90;;;;;;5062754;28;20040;-70
2023/09/21 09:18:05;;;;;;;5.88;2.72;;;22.60;99.90;;;;;;5044514;28;20021;-72
2023/09/21 09:20:32;;;;;;;7.20;2.65;;;22.60;99.90;;;;;;5062568;28;20033;-71
2023/09/21 09:23:01;;;;;;;6.45;2.67;;;22.60;99.90;;;;;;5061969;28;20071;-71
2023/09/21 09:25:27;;;;;;;3.78;2.50;;;22.50;99.90;;;;;;5061192;28;20021;-69
2023/09/21 09:27:52;;;;;;;5.93;2.60;;;22.50;99.90;;;;;;5058072;28;20494;-71
2023/09/21 09:30:20;;;;;;;7.22;2.20;;;22.50;99.90;;;;;;5059556;28;20041;-72
2023/09/21 09:32:47;;;;;;;6.43;2.28;;;22.50;99.90;;;;;;5062337;28;20016;-70
2023/09/21 09:35:13;;;;;;;5.60;2.47;;;22.40;99.90;;;;;;5061450;28;20096;-72
2023/09/21 09:37:48;;;;;;;5.22;2.25;;;22.30;99.90;;;;;;5059899;28;20101;-72
2023/09/21 09:40:23;;;;;;;8.80;2.42;;;22.30;99.90;;;;;;5060498;28;20036;-71
2023/09/21 09:42:51;;;;;;;6.75;2.78;;;22.30;99.90;;;;;;5061370;28;20048;-71
2023/09/21 09:45:30;;;;;;;4.03;2.30;;;22.30;99.90;;;;;;5060215;28;20365;-71
2023/09/21 09:48:03;;;;;;;4.53;2.47;;;22.20;99.90;;;;;;5059033;28;20024;-73
2023/09/21 09:50:33;;;;;;;9.30;2.38;;;22.20;99.90;;;;;;5061272;28;20020;-72
2023/09/21 09:53:03;;;;;;;4.63;2.38;;;22.20;99.90;;;;;;5059729;28;20611;-70
2023/09/21 09:55:33;;;;;;;3.92;2.33;;;22.20;99.90;;;;;;5060959;28;20021;-70
2023/09/21 09:58:00;;;;;;;4.38;2.30;;;22.20;99.90;;;;;;5061000;28;20153;-73
2023/09/21 10:00:27;;;;;;;3.65;2.50;;;22.20;99.90;;;;;;5061180;28;20029;-70
2023/09/21 10:02:55;;;;;;;5.68;2.17;;;22.30;99.90;;;;;;5059469;28;20040;-70
2023/09/21 10:05:24;;;;;;;9.55;2.60;;;22.30;99.90;;;;;;5061551;28;20093;-72
2023/09/21 10:07:51;;;;;;;4.53;2.50;;;22.30;99.90;;;;;;5060342;28;20033;-71
2023/09/21 10:10:20;;;;;;;14.82;2.95;;;22.40;99.90;;;;;;5060390;28;20135;-73
2023/09/21 10:12:51;;;;;;;8.73;2.35;;;22.40;99.90;;;;;;5061400;28;20021;-70
2023/09/21 10:15:18;;;;;;;7.13;2.30;;;22.50;99.90;;;;;;5060822;28;20092;-72
2023/09/21 10:17:43;;;;;;;8.35;2.70;;;22.70;99.90;;;;;;5060608;28;20021;-71
2023/09/21 10:20:16;;;;;;;5.93;2.05;;;22.90;99.90;;;;;;5061145;28;20033;-72
2023/09/21 10:22:46;;;;;;;6.78;2.35;;;23.10;99.90;;;;;;5061792;28;20036;-70
2023/09/21 10:25:13;;;;;;;4.90;2.20;;;23.20;99.90;;;;;;5059874;28;20033;-72
2023/09/21 10:27:39;;;;;;;4.93;2.40;;;23.20;99.90;;;;;;5061184;28;20020;-70
2023/09/21 10:30:09;;;;;;;5.57;2.40;;;23.20;99.90;;;;;;5061402;28;20036;-71
2023/09/21 10:32:56;;;;;;;6.90;2.55;;;23.40;99.90;;;;;;5057691;28;20020;-70
2023/09/21 10:35:42;;;;;;;4.30;2.25;;;23.50;99.90;;;;;;5059752;28;20045;-74
2023/09/21 10:38:17;;;;;;;4.43;2.50;;;23.60;99.90;;;;;;5061300;28;20025;-69
2023/09/21 10:40:43;;;;;;;9.43;2.25;;;23.50;99.90;;;;;;5060215;28;20474;-70
2023/09/21 10:43:37;;;;;;;5.32;2.47;;;23.50;99.90;;;;;;5061066;28;20047;-70
2023/09/21 10:46:15;;;;;;;5.60;2.28;;;23.50;99.90;;;;;;5060756;28;20059;-72
2023/09/21 10:48:44;;;;;;;5.43;2.50;;;23.60;99.90;;;;;;5060033;28;20065;-70
2023/09/21 10:51:10;;;;;;;4.57;2.47;;;23.70;99.90;;;;;;5060971;28;20123;-69
2023/09/21 10:53:37;;;;;;;3.47;2.40;;;23.70;99.90;;;;;;5060877;28;20029;-73
2023/09/21 10:56:05;;;;;;;5.63;2.15;;;23.80;99.90;;;;;;5060437;28;20021;-73
2023/09/21 10:58:34;;;;;;;4.03;2.45;;;23.90;99.90;;;;;;5060854;28;20025;-68
2023/09/21 11:01:00;;;;;;;3.65;2.10;;;23.90;99.90;;;;;;5058609;28;20029;-72
2023/09/21 11:03:29;;;;;;;7.55;2.28;;;23.90;99.90;;;;;;5060614;28;20037;-72
2023/09/21 11:05:56;;;;;;;7.57;2.60;;;23.70;99.90;;;;;;5060236;28;20501;-71
2023/09/21 11:08:25;;;;;;;4.13;2.30;;;23.70;99.90;;;;;;5059747;28;20078;-74
2023/09/21 11:10:51;;;;;;;6.28;2.70;;;23.70;99.90;;;;;;5060404;28;20025;-71
2023/09/21 11:13:17;;;;;;;8.35;2.65;;;23.90;99.90;;;;;;5062004;28;20020;-72
2023/09/21 11:15:46;;;;;;;5.63;2.65;;;24.00;99.90;;;;;;5064384;28;20108;-69
2023/09/21 11:18:12;;;;;;;4.20;2.20;;;24.20;99.90;;;;;;5063774;28;20604;-69
2023/09/21 11:20:40;;;;;;;5.70;2.45;;;24.30;99.90;;;;;;5063838;28;20028;-71
2023/09/21 11:23:07;;;;;;;4.65;2.63;;;24.30;99.90;;;;;;5063297;28;20636;-70
2023/09/21 11:25:34;;;;;;;7.03;2.97;;;24.30;99.90;;;;;;5064091;28;20021;-69
2023/09/21 11:28:00;;;;;;;5.80;2.70;;;24.20;99.90;;;;;;5064181;28;20029;-69
2023/09/21 11:30:25;;;;;;;10.38;3.15;;;24.10;99.90;;;;;;5062814;28;20070;-72
2023/09/21 11:32:53;;;;;;;11.50;2.80;;;24.20;99.90;;;;;;5064358;28;20123;-72
2023/09/21 11:35:20;;;;;;;8.68;2.80;;;24.10;99.90;;;;;;5064394;28;20045;-69
2023/09/21 11:37:46;;;;;;;10.02;2.40;;;24.10;99.90;;;;;;5064064;28;20040;-72
2023/09/21 11:40:13;;;;;;;7.13;2.85;;;24.10;99.90;;;;;;5064916;28;20547;-72
2023/09/21 11:42:46;;;;;;;7.03;2.30;;;24.00;99.90;;;;;;5064585;28;20025;-70
2023/09/21 11:45:21;;;;;;;4.80;2.72;;;23.90;99.90;;;;;;5064160;28;20040;-70
2023/09/21 11:47:52;;;;;;;6.00;2.88;;;24.10;99.90;;;;;;5064114;28;20084;-72
2023/09/21 11:50:22;;;;;;;10.77;2.67;;;24.10;99.90;;;;;;5064286;28;20043;-70
2023/09/21 11:52:56;;;;;;;9.95;3.00;;;24.20;99.90;;;;;;5063001;28;20021;-74
2023/09/21 11:55:29;;;;;;;10.25;4.28;;;24.10;99.90;;;;;;5064275;28;20033;-72
2023/09/21 11:58:31;;;;;;;7.32;3.22;;;24.10;99.90;;;;;;5063420;28;20088;-75
2023/09/21 12:03:37;;;;;;;5.38;2.40;;;23.90;99.90;;;;;;5064066;28;20116;-71
2023/09/21 12:06:04;;;;;;;7.13;2.40;;;23.90;99.90;;;;;;5048732;28;20551;-71
2023/09/21 12:08:31;;;;;;;4.25;2.55;;;23.80;99.90;;;;;;5074048;28;20047;-71
2023/09/21 12:10:57;;;;;;;4.30;2.30;;;23.80;99.90;;;;;;5063158;28;20112;-71
2023/09/21 12:13:23;;;;;;;6.82;2.72;;;23.80;99.90;;;;;;5060227;28;20049;-73
2023/09/21 12:15:55;;;;;;;4.35;2.47;;;23.80;99.90;;;;;;5064072;28;20029;-71
2023/09/21 12:18:21;;;;;;;12.07;2.83;;;23.80;99.90;;;;;;5063478;28;20017;-71
2023/09/21 12:20:52;;;;;;;7.13;2.78;;;23.80;99.90;;;;;;5061051;28;20026;-73
2023/09/21 12:23:18;;;;;;;10.13;2.40;;;23.80;99.90;;;;;;5062738;28;20033;-72
2023/09/21 12:25:45;;;;;;;4.28;2.30;;;23.80;99.90;;;;;;5063337;28;20083;-72
2023/09/21 12:28:11;;;;;;;6.78;2.20;;;23.80;99.90;;;;;;5063395;28;20025;-70
2023/09/21 12:30:38;;;;;;;4.22;2.42;;;23.80;99.90;;;;;;5062774;28;20032;-68
2023/09/21 12:33:06;;;;;;;5.22;2.33;;;23.80;99.90;;;;;;5063938;28;20047;-69
2023/09/21 12:35:31;;;;;;;4.57;2.10;;;23.70;99.90;;;;;;5061372;28;20072;-71
2023/09/21 12:37:58;;;;;;;6.88;2.20;;;23.70;99.90;;;;;;5063451;28;20017;-69
2023/09/21 12:40:23;;;;;;;9.23;2.35;;;23.70;99.90;;;;;;5060557;28;20417;-70
2023/09/21 12:42:49;;;;;;;4.57;2.30;;;23.70;99.90;;;;;;5063220;28;20072;-70
2023/09/21 12:45:15;;;;;;;6.80;2.15;;;23.70;99.90;;;;;;5063330;28;20024;-71
2023/09/21 12:47:41;;;;;;;7.00;2.28;;;23.70;99.90;;;;;;5062676;28;20044;-70
2023/09/21 12:50:09;;;;;;;9.25;2.63;;;23.70;99.90;;;;;;5062412;28;20052;-71
2023/09/21 12:52:35;;;;;;;3.88;2.22;;;23.70;99.90;;;;;;5063282;28;20054;-72